Allegan, Michigan
Current Conditions -  °F | °C
As of 10:31 AM on Wednesday 26 Nov 2014 (Local Time) from KBIV Reporting Station
Overcast Overcast  
Wind Chill: -6°   Ceiling: 3000
Heat Index: -2°   Visibility: 10mi
Dew Point: -6°   Wind: 7mph
Humidity: 75%   Direction: 140°SE
Pressure: 30.17"   Gusts: NA
Location:  42.53°N, 85.86°W
Report Text: KBIV 261531Z AUTO 14006KT 10SM OVC030 M02/M06 A3017 RMK AO2 T10171056
Loading
Personal Weather Stations






























Interactive Weather Map New forecast layout! Learn more

10-Day Weather Forecast

Advertisements
Track Severe Weather on mobile